Nearby METAR Reports

 

KCOU - Columbia, Missouri, USA
Distance from station: WNW 14mi, 23km
Updated: Tue, 20-Feb-2024 6:54pm CST
Clear
Clear
 Wind from SE
Wind: SE 6 mph , 9 km/h
Temperature: 57°F , 14°C
Dew Point: 28°F , -2°C
Humidity: 33%
Barometer: 30.11 inHg , 1019.6 hPa
Clouds: Clear
Visibility: 10 miles , 16 km
2024/02/21 00:54 KCOU 210054Z 14005KT 10SM CLR 14/M02 A3011 RMK AO2 SLP198 T01441022
KJEF - Jefferson City, Missouri, USA
Distance from station: SW 14mi, 23km
Updated: Tue, 20-Feb-2024 6:53pm CST
Clear
Clear
 Wind from calm
Wind: Calm
Temperature: 55°F , 13°C
Dew Point: 30°F , -1°C
Humidity: 38%
Barometer: 30.11 inHg , 1019.6 hPa
Clouds: Clear
Visibility: 10 miles , 16 km
2024/02/21 00:53 KJEF 210053Z 00000KT 10SM CLR 13/M01 A3011 RMK AO2 SLP190 T01281006
 
KMYJ - Mexico, Missouri, USA
Distance from station: NNE 29mi, 46km
Updated: Tue, 20-Feb-2024 7:35pm CST
Clear
Clear
 Wind from S
Wind: S 6 mph , 9 km/h
Temperature: 41°F , 5°C
Wind Chill: 37°F , 3°C
Dew Point: 32°F , 0°C
Humidity: 70%
Barometer: 30.11 inHg , 1019.6 hPa
Clouds: Clear
Visibility: 10 miles , 16 km
2024/02/21 01:35 KMYJ 210135Z AUTO 18005KT 10SM CLR 05/00 A3011 RMK AO2
KVER - Boonville, Missouri, USA
Distance from station: WNW 41mi, 66km
Updated: Tue, 20-Feb-2024 7:55pm CST
Clear
Clear
 Wind from SSE
Wind: SSE 6 mph , 9 km/h
Temperature: 54°F , 12°C
Dew Point: 32°F , 0°C
Humidity: 44%
Barometer: 30.10 inHg , 1019.3 hPa
Clouds: Clear
Visibility: 10 miles , 16 km
2024/02/21 01:55 KVER 210155Z AUTO 15005KT 10SM CLR 12/00 A3010 RMK AO2 T01201002
 
KVIH - Vichy/Rolla, Missouri, USA
Distance from station: SSE 44mi, 71km
Updated: Tue, 20-Feb-2024 6:53pm CST
Clear
Clear
 Wind from SSE
Wind: SSE 6 mph , 9 km/h
Temperature: 55°F , 13°C
Dew Point: 30°F , -1°C
Humidity: 38%
Barometer: 30.13 inHg , 1020.3 hPa
Clouds: Clear
Visibility: 10 miles , 16 km
2024/02/21 00:53 KVIH 210053Z AUTO 16005KT 10SM CLR 13/M01 A3013 RMK AO2 SLP204 T01331006
KFYG - Washington, Missouri, USA
Distance from station: ESE 53mi, 86km
Updated: Tue, 20-Feb-2024 7:35pm CST
Clear
Clear
 Wind from calm
Wind: Calm
Temperature: 46°F , 8°C
Dew Point: 36°F , 2°C
Humidity: 66%
Barometer: 30.12 inHg , 1020 hPa
Clouds: Clear
Visibility: 10 miles , 16 km
2024/02/21 01:35 KFYG 210135Z AUTO 00000KT 10SM CLR 08/02 A3012 RMK AO2
 
KAIZ - Kaiser Mem, Missouri, USA
Distance from station: SW 54mi, 88km
Updated: Tue, 20-Feb-2024 6:56pm CST
Clear
Clear
 Wind from calm
Wind: Calm
Temperature: 55°F , 13°C
Dew Point: 27°F , -3°C
Humidity: 33%
Barometer: 30.12 inHg , 1020 hPa
Clouds: Clear
Visibility: 10 miles , 16 km
2024/02/21 00:56 KAIZ 210056Z AUTO 00000KT 10SM CLR 13/M03 A3012 RMK AO2 SLP201 T01281028
KMBY - Moberly, Missouri, USA
Distance from station: NNW 55mi, 89km
Updated: Tue, 20-Feb-2024 7:35pm CST
Clear
Clear
 Wind from S
Wind: S 7 mph , 11 km/h
Temperature: 54°F , 12°C
Dew Point: 27°F , -3°C
Humidity: 35%
Barometer: 30.10 inHg , 1019.3 hPa
Clouds: Clear
Visibility: 10 miles , 16 km
2024/02/21 01:35 KMBY 210135Z AUTO 17006KT 10SM CLR 12/M03 A3010 RMK AO2
 
KUUV - Sullivan, Missouri, USA
Distance from station: SE 56mi, 90km
Updated: Tue, 20-Feb-2024 7:55pm CST
Clear
Clear
 Wind from calm
Wind: Calm
Temperature: 45°F , 7°C
Dew Point: 32°F , 0°C
Humidity: 61%
Barometer: 30.15 inHg , 1021 hPa
Clouds: Clear
Visibility: 10 miles , 16 km
2024/02/21 01:55 KUUV 210155Z AUTO 00000KT 10SM CLR 07/00 A3015 RMK AO2
KDMO - Sedalia, Missouri, USA
Distance from station: W 65mi, 104km
Updated: Tue, 20-Feb-2024 6:53pm CST
Clear
Clear
 Wind from SSW
Wind: SSW 5 mph , 7 km/h
Temperature: 59°F , 15°C
Dew Point: 27°F , -3°C
Humidity: 29%
Barometer: 30.11 inHg , 1019.6 hPa
Clouds: Clear
Visibility: 10 miles , 16 km
2024/02/21 00:53 KDMO 210053Z AUTO 21004KT 10SM CLR 15/M03 A3011 RMK AO2 SLP196 T01501033
 
KOZS - Camdenton, Missouri, USA
Distance from station: SW 67mi, 107km
Updated: Tue, 20-Feb-2024 7:35pm CST
Clear
Clear
 Wind from S
Wind: S 3 mph , 6 km/h
Temperature: 59°F , 15°C
Dew Point: 25°F , -4°C
Humidity: 27%
Barometer: 30.13 inHg , 1020.3 hPa
Clouds: Clear
Visibility: 10 miles , 16 km
2024/02/21 01:35 KOZS 210135Z AUTO 19003KT 10SM CLR 15/M04 A3013 RMK AO2
KMHL - Marshall, Missouri, USA
Distance from station: WNW 70mi, 113km
Updated: Tue, 20-Feb-2024 7:35pm CST
Clear
Clear
 Wind from S
Wind: S 6 mph , 9 km/h
Temperature: 50°F , 10°C
Wind Chill: 48°F , 9°C
Dew Point: 32°F , 0°C
Humidity: 50%
Barometer: 30.10 inHg , 1019.3 hPa
Clouds: Clear
Visibility: 10 miles , 16 km
2024/02/21 01:35 KMHL 210135Z AUTO 17005KT 10SM CLR 10/00 A3010 RMK AO2
 
KSUS - St. Louis/Spirit, Missouri, USA
Distance from station: E 71mi, 115km
Updated: Tue, 20-Feb-2024 6:54pm CST
Clear
Clear
 Wind from calm
Wind: Calm
Temperature: 46°F , 8°C
Dew Point: 34°F , 1°C
Humidity: 62%
Barometer: 30.12 inHg , 1020 hPa
Clouds: Clear
Visibility: 10 miles , 16 km
2024/02/21 00:54 KSUS 210054Z 00000KT 10SM CLR 08/01 A3012 RMK AO2 SLP207 T00780011
KTBN - Fort Leonard Woo, Missouri, USA
Distance from station: S 72mi, 116km
Updated: Tue, 20-Feb-2024 6:55pm CST
Clear
Clear
 Wind from calm
Wind: Calm
Temperature: 54°F , 12°C
Dew Point: 28°F , -2°C
Humidity: 38%
Barometer: 30.10 inHg , 1019.3 hPa
Clouds: Clear
Visibility: 10 miles , 16 km
2024/02/21 00:55 KTBN 210055Z AUTO 00000KT 10SM CLR 12/M02 A3010 RMK AO2 SLP199 T01201019
 
KHAE - Hannibal, Missouri, USA
Distance from station: NNE 73mi, 118km
Updated: Tue, 20-Feb-2024 7:35pm CST
Clear
Clear
 Wind from S
Wind: S 5 mph , 7 km/h
Temperature: 52°F , 11°C
Dew Point: 28°F , -2°C
Humidity: 41%
Barometer: 30.10 inHg , 1019.3 hPa
Clouds: Clear
Visibility: 10 miles , 16 km
2024/02/21 01:35 KHAE 210135Z AUTO 18004KT 10SM CLR 11/M02 A3010 RMK AO2